Terminal Aerodrome Forecast
Issued by NWS

Home | Current Version | Previous Version | Text Only | Print | Product List | Glossary On
Versions: 1 2 3 4 5 6 7 8 9 10 11 12 13 14 15
000
FTUS44 KLZK 312300
TAFADF
TAF
KADF 312335Z 0100/0124 09005KT 6SM BR VCSH SCT020 OVC050
      TEMPO 0101/0104 3SM BR OVC020
     FM010400 09003KT P6SM VCSH SCT015 OVC040
     FM010600 VRB03KT 5SM BR FEW008 BKN020 OVC050
     FM010900 VRB03KT 3SM BR SCT010 OVC025
      TEMPO 0109/0112 1/2SM FG BKN005
     FM011500 09005KT P6SM SCT020 BKN035 BKN250=

USA.gov is the U.S. government's official web portal to all federal, state and local government web resources and services.